sensor_id;sensor_type;location;lat;lon;timestamp;P1;durP1;ratioP1;P2;durP2;ratioP2
22470;SDS011;11402;51.374;6.594;2022-08-19T00:01:47;9.75;;;8.77;;
22470;SDS011;11402;51.374;6.594;2022-08-19T00:04:16;11.23;;;8.90;;
22470;SDS011;11402;51.374;6.594;2022-08-19T00:06:44;11.57;;;8.75;;
22470;SDS011;11402;51.374;6.594;2022-08-19T00:09:14;11.13;;;9.18;;
22470;SDS011;11402;51.374;6.594;2022-08-19T00:11:42;10.10;;;8.23;;
22470;SDS011;11402;51.374;6.594;2022-08-19T00:14:10;9.63;;;8.63;;
22470;SDS011;11402;51.374;6.594;2022-08-19T00:16:37;10.68;;;8.85;;
22470;SDS011;11402;51.374;6.594;2022-08-19T00:19:04;10.10;;;8.57;;
22470;SDS011;11402;51.374;6.594;2022-08-19T00:21:30;10.20;;;9.05;;
22470;SDS011;11402;51.374;6.594;2022-08-19T00:23:56;11.18;;;8.57;;
22470;SDS011;11402;51.374;6.594;2022-08-19T00:26:23;9.88;;;8.93;;
22470;SDS011;11402;51.374;6.594;2022-08-19T00:28:50;9.95;;;8.95;;
22470;SDS011;11402;51.374;6.594;2022-08-19T00:31:16;10.30;;;9.25;;
22470;SDS011;11402;51.374;6.594;2022-08-19T00:33:41;11.55;;;8.18;;
22470;SDS011;11402;51.374;6.594;2022-08-19T00:36:08;9.85;;;8.75;;
22470;SDS011;11402;51.374;6.594;2022-08-19T00:38:36;12.45;;;8.95;;
22470;SDS011;11402;51.374;6.594;2022-08-19T00:41:06;10.52;;;8.90;;
22470;SDS011;11402;51.374;6.594;2022-08-19T00:43:32;10.18;;;9.07;;
22470;SDS011;11402;51.374;6.594;2022-08-19T00:45:58;10.20;;;9.20;;
22470;SDS011;11402;51.374;6.594;2022-08-19T00:48:23;10.15;;;8.98;;
22470;SDS011;11402;51.374;6.594;2022-08-19T00:50:49;10.57;;;8.98;;
22470;SDS011;11402;51.374;6.594;2022-08-19T00:53:19;11.52;;;9.45;;
22470;SDS011;11402;51.374;6.594;2022-08-19T00:55:54;14.45;;;9.40;;
22470;SDS011;11402;51.374;6.594;2022-08-19T00:58:26;9.85;;;8.88;;
22470;SDS011;11402;51.374;6.594;2022-08-19T01:00:55;10.47;;;8.83;;
22470;SDS011;11402;51.374;6.594;2022-08-19T01:03:20;10.63;;;9.43;;
22470;SDS011;11402;51.374;6.594;2022-08-19T01:05:47;10.25;;;9.25;;
22470;SDS011;11402;51.374;6.594;2022-08-19T01:08:16;10.60;;;9.50;;
22470;SDS011;11402;51.374;6.594;2022-08-19T01:10:45;11.45;;;8.90;;
22470;SDS011;11402;51.374;6.594;2022-08-19T01:13:14;11.25;;;9.40;;
22470;SDS011;11402;51.374;6.594;2022-08-19T01:15:43;11.45;;;9.60;;
22470;SDS011;11402;51.374;6.594;2022-08-19T01:18:15;11.82;;;10.30;;
22470;SDS011;11402;51.374;6.594;2022-08-19T01:20:42;11.43;;;10.00;;
22470;SDS011;11402;51.374;6.594;2022-08-19T01:23:09;12.20;;;10.10;;
22470;SDS011;11402;51.374;6.594;2022-08-19T01:25:45;13.30;;;10.00;;
22470;SDS011;11402;51.374;6.594;2022-08-19T01:28:19;10.65;;;9.52;;
22470;SDS011;11402;51.374;6.594;2022-08-19T01:30:51;12.13;;;10.27;;
22470;SDS011;11402;51.374;6.594;2022-08-19T01:33:17;12.98;;;10.45;;
22470;SDS011;11402;51.374;6.594;2022-08-19T01:35:44;12.05;;;9.93;;
22470;SDS011;11402;51.374;6.594;2022-08-19T01:38:18;11.60;;;10.45;;
22470;SDS011;11402;51.374;6.594;2022-08-19T01:40:46;11.48;;;10.27;;
22470;SDS011;11402;51.374;6.594;2022-08-19T01:43:12;12.25;;;10.82;;
22470;SDS011;11402;51.374;6.594;2022-08-19T01:45:37;11.38;;;10.27;;
22470;SDS011;11402;51.374;6.594;2022-08-19T01:48:05;11.27;;;10.05;;
22470;SDS011;11402;51.374;6.594;2022-08-19T01:50:31;10.85;;;9.65;;
22470;SDS011;11402;51.374;6.594;2022-08-19T01:52:58;13.52;;;10.50;;
22470;SDS011;11402;51.374;6.594;2022-08-19T01:55:25;14.85;;;11.25;;
22470;SDS011;11402;51.374;6.594;2022-08-19T01:57:52;11.48;;;10.27;;
22470;SDS011;11402;51.374;6.594;2022-08-19T02:00:22;12.45;;;10.70;;
22470;SDS011;11402;51.374;6.594;2022-08-19T02:02:49;12.27;;;10.95;;
22470;SDS011;11402;51.374;6.594;2022-08-19T02:05:15;12.27;;;11.00;;
22470;SDS011;11402;51.374;6.594;2022-08-19T02:07:42;12.35;;;11.25;;
22470;SDS011;11402;51.374;6.594;2022-08-19T02:10:11;13.43;;;12.02;;
22470;SDS011;11402;51.374;6.594;2022-08-19T02:12:40;16.25;;;12.48;;
22470;SDS011;11402;51.374;6.594;2022-08-19T02:15:06;15.60;;;12.75;;
22470;SDS011;11402;51.374;6.594;2022-08-19T02:17:32;13.52;;;12.13;;
22470;SDS011;11402;51.374;6.594;2022-08-19T02:19:58;19.30;;;13.80;;
22470;SDS011;11402;51.374;6.594;2022-08-19T02:22:25;18.60;;;14.95;;
22470;SDS011;11402;51.374;6.594;2022-08-19T02:24:54;15.60;;;14.00;;
22470;SDS011;11402;51.374;6.594;2022-08-19T02:27:20;17.15;;;15.20;;
22470;SDS011;11402;51.374;6.594;2022-08-19T02:29:47;17.77;;;15.80;;
22470;SDS011;11402;51.374;6.594;2022-08-19T02:32:14;17.20;;;15.30;;
22470;SDS011;11402;51.374;6.594;2022-08-19T02:34:40;17.65;;;15.73;;
22470;SDS011;11402;51.374;6.594;2022-08-19T02:37:06;19.40;;;16.13;;
22470;SDS011;11402;51.374;6.594;2022-08-19T02:39:52;16.85;;;15.15;;
22470;SDS011;11402;51.374;6.594;2022-08-19T02:42:18;18.15;;;15.80;;
22470;SDS011;11402;51.374;6.594;2022-08-19T02:44:43;17.95;;;16.05;;
22470;SDS011;11402;51.374;6.594;2022-08-19T02:47:09;18.08;;;16.08;;
22470;SDS011;11402;51.374;6.594;2022-08-19T02:49:35;19.08;;;16.98;;
22470;SDS011;11402;51.374;6.594;2022-08-19T02:52:00;20.38;;;18.10;;
22470;SDS011;11402;51.374;6.594;2022-08-19T02:54:27;20.08;;;17.98;;
22470;SDS011;11402;51.374;6.594;2022-08-19T02:56:53;20.98;;;18.00;;
22470;SDS011;11402;51.374;6.594;2022-08-19T02:59:18;24.73;;;20.75;;
22470;SDS011;11402;51.374;6.594;2022-08-19T03:01:45;23.70;;;20.55;;
22470;SDS011;11402;51.374;6.594;2022-08-19T03:04:12;22.85;;;20.40;;
22470;SDS011;11402;51.374;6.594;2022-08-19T03:06:41;25.08;;;22.50;;
22470;SDS011;11402;51.374;6.594;2022-08-19T03:09:08;27.23;;;24.33;;
22470;SDS011;11402;51.374;6.594;2022-08-19T03:11:35;28.58;;;24.30;;
22470;SDS011;11402;51.374;6.594;2022-08-19T03:14:01;27.90;;;24.52;;
22470;SDS011;11402;51.374;6.594;2022-08-19T03:16:29;28.80;;;24.23;;
22470;SDS011;11402;51.374;6.594;2022-08-19T03:18:57;29.52;;;24.25;;
22470;SDS011;11402;51.374;6.594;2022-08-19T03:21:26;31.33;;;26.27;;
22470;SDS011;11402;51.374;6.594;2022-08-19T03:23:54;30.98;;;25.58;;
22470;SDS011;11402;51.374;6.594;2022-08-19T03:26:21;34.28;;;30.23;;
22470;SDS011;11402;51.374;6.594;2022-08-19T03:28:46;33.00;;;29.50;;
22470;SDS011;11402;51.374;6.594;2022-08-19T03:31:15;34.33;;;29.90;;
22470;SDS011;11402;51.374;6.594;2022-08-19T03:33:46;35.65;;;30.38;;
22470;SDS011;11402;51.374;6.594;2022-08-19T03:36:19;33.97;;;29.17;;
22470;SDS011;11402;51.374;6.594;2022-08-19T03:38:48;35.53;;;31.75;;
22470;SDS011;11402;51.374;6.594;2022-08-19T03:41:17;36.92;;;32.33;;
22470;SDS011;11402;51.374;6.594;2022-08-19T03:43:45;38.35;;;34.10;;
22470;SDS011;11402;51.374;6.594;2022-08-19T03:46:15;38.25;;;33.10;;
22470;SDS011;11402;51.374;6.594;2022-08-19T03:48:43;38.30;;;33.40;;
22470;SDS011;11402;51.374;6.594;2022-08-19T03:51:16;39.00;;;33.58;;
22470;SDS011;11402;51.374;6.594;2022-08-19T03:53:45;35.20;;;31.30;;
22470;SDS011;11402;51.374;6.594;2022-08-19T03:56:11;38.22;;;32.60;;
22470;SDS011;11402;51.374;6.594;2022-08-19T03:58:38;39.58;;;35.38;;
22470;SDS011;11402;51.374;6.594;2022-08-19T04:01:07;40.15;;;35.78;;
22470;SDS011;11402;51.374;6.594;2022-08-19T04:03:37;41.10;;;36.07;;
22470;SDS011;11402;51.374;6.594;2022-08-19T04:06:13;41.90;;;37.15;;
22470;SDS011;11402;51.374;6.594;2022-08-19T04:08:46;43.35;;;36.42;;
22470;SDS011;11402;51.374;6.594;2022-08-19T04:11:14;42.25;;;36.50;;
22470;SDS011;11402;51.374;6.594;2022-08-19T04:13:42;40.33;;;35.92;;
22470;SDS011;11402;51.374;6.594;2022-08-19T04:16:09;43.58;;;38.60;;
22470;SDS011;11402;51.374;6.594;2022-08-19T04:18:35;44.13;;;37.58;;
22470;SDS011;11402;51.374;6.594;2022-08-19T04:21:02;41.28;;;36.75;;
22470;SDS011;11402;51.374;6.594;2022-08-19T04:23:29;55.40;;;43.80;;
22470;SDS011;11402;51.374;6.594;2022-08-19T04:25:55;49.63;;;43.47;;
22470;SDS011;11402;51.374;6.594;2022-08-19T04:28:24;52.08;;;43.45;;
22470;SDS011;11402;51.374;6.594;2022-08-19T04:30:51;49.03;;;42.88;;
22470;SDS011;11402;51.374;6.594;2022-08-19T04:33:19;49.35;;;42.78;;
22470;SDS011;11402;51.374;6.594;2022-08-19T04:35:47;49.72;;;42.95;;
22470;SDS011;11402;51.374;6.594;2022-08-19T04:38:15;49.70;;;43.30;;
22470;SDS011;11402;51.374;6.594;2022-08-19T04:40:42;50.10;;;42.45;;
22470;SDS011;11402;51.374;6.594;2022-08-19T04:43:29;52.42;;;44.63;;
22470;SDS011;11402;51.374;6.594;2022-08-19T04:45:56;50.15;;;44.08;;
22470;SDS011;11402;51.374;6.594;2022-08-19T04:48:22;53.47;;;46.20;;
22470;SDS011;11402;51.374;6.594;2022-08-19T04:50:52;57.10;;;47.90;;
22470;SDS011;11402;51.374;6.594;2022-08-19T04:53:22;59.45;;;48.67;;
22470;SDS011;11402;51.374;6.594;2022-08-19T04:58:22;58.17;;;47.80;;
22470;SDS011;11402;51.374;6.594;2022-08-19T05:00:49;53.97;;;45.75;;
22470;SDS011;11402;51.374;6.594;2022-08-19T05:03:15;54.75;;;46.92;;
22470;SDS011;11402;51.374;6.594;2022-08-19T05:05:42;54.30;;;46.08;;
22470;SDS011;11402;51.374;6.594;2022-08-19T05:08:14;53.95;;;45.53;;
22470;SDS011;11402;51.374;6.594;2022-08-19T05:10:45;52.88;;;45.78;;
22470;SDS011;11402;51.374;6.594;2022-08-19T05:13:13;54.45;;;45.55;;
22470;SDS011;11402;51.374;6.594;2022-08-19T05:15:39;53.50;;;45.50;;
22470;SDS011;11402;51.374;6.594;2022-08-19T05:18:05;58.03;;;48.88;;
22470;SDS011;11402;51.374;6.594;2022-08-19T05:20:50;63.20;;;50.70;;
22470;SDS011;11402;51.374;6.594;2022-08-19T05:23:34;64.40;;;51.80;;
22470;SDS011;11402;51.374;6.594;2022-08-19T05:25:59;61.60;;;50.25;;
22470;SDS011;11402;51.374;6.594;2022-08-19T05:28:25;63.40;;;52.30;;
22470;SDS011;11402;51.374;6.594;2022-08-19T05:30:52;69.07;;;55.05;;
22470;SDS011;11402;51.374;6.594;2022-08-19T05:33:20;64.10;;;53.17;;
22470;SDS011;11402;51.374;6.594;2022-08-19T05:35:46;65.95;;;54.65;;
22470;SDS011;11402;51.374;6.594;2022-08-19T05:38:14;66.65;;;54.20;;
22470;SDS011;11402;51.374;6.594;2022-08-19T05:40:40;64.13;;;51.85;;
22470;SDS011;11402;51.374;6.594;2022-08-19T05:43:07;63.20;;;53.30;;
22470;SDS011;11402;51.374;6.594;2022-08-19T05:45:37;70.38;;;58.50;;
22470;SDS011;11402;51.374;6.594;2022-08-19T05:48:05;69.18;;;57.65;;
22470;SDS011;11402;51.374;6.594;2022-08-19T05:50:30;63.05;;;53.33;;
22470;SDS011;11402;51.374;6.594;2022-08-19T05:52:56;69.10;;;55.33;;
22470;SDS011;11402;51.374;6.594;2022-08-19T05:55:22;75.68;;;58.00;;
22470;SDS011;11402;51.374;6.594;2022-08-19T05:57:48;74.03;;;57.80;;
22470;SDS011;11402;51.374;6.594;2022-08-19T06:00:14;69.82;;;55.63;;
22470;SDS011;11402;51.374;6.594;2022-08-19T06:02:40;68.70;;;57.60;;
22470;SDS011;11402;51.374;6.594;2022-08-19T06:05:06;73.35;;;58.47;;
22470;SDS011;11402;51.374;6.594;2022-08-19T06:07:34;73.72;;;58.58;;
22470;SDS011;11402;51.374;6.594;2022-08-19T06:10:02;81.35;;;62.63;;
22470;SDS011;11402;51.374;6.594;2022-08-19T06:12:33;81.22;;;63.72;;
22470;SDS011;11402;51.374;6.594;2022-08-19T06:15:00;69.32;;;55.28;;
22470;SDS011;11402;51.374;6.594;2022-08-19T06:17:29;79.45;;;61.35;;
22470;SDS011;11402;51.374;6.594;2022-08-19T06:19:55;77.55;;;60.13;;
22470;SDS011;11402;51.374;6.594;2022-08-19T06:22:21;78.30;;;58.45;;
22470;SDS011;11402;51.374;6.594;2022-08-19T06:24:47;80.97;;;59.70;;
22470;SDS011;11402;51.374;6.594;2022-08-19T06:27:13;74.95;;;58.45;;
22470;SDS011;11402;51.374;6.594;2022-08-19T06:29:38;71.82;;;56.72;;
22470;SDS011;11402;51.374;6.594;2022-08-19T06:32:04;74.68;;;56.97;;
22470;SDS011;11402;51.374;6.594;2022-08-19T06:34:31;76.20;;;57.00;;
22470;SDS011;11402;51.374;6.594;2022-08-19T06:36:58;75.40;;;57.78;;
22470;SDS011;11402;51.374;6.594;2022-08-19T06:39:34;74.13;;;55.17;;
22470;SDS011;11402;51.374;6.594;2022-08-19T06:42:03;77.70;;;53.42;;
22470;SDS011;11402;51.374;6.594;2022-08-19T06:44:32;77.15;;;55.67;;
22470;SDS011;11402;51.374;6.594;2022-08-19T06:47:04;70.05;;;51.72;;
22470;SDS011;11402;51.374;6.594;2022-08-19T06:49:32;77.15;;;57.42;;
22470;SDS011;11402;51.374;6.594;2022-08-19T06:51:58;71.43;;;51.72;;
22470;SDS011;11402;51.374;6.594;2022-08-19T06:54:24;68.28;;;50.97;;
22470;SDS011;11402;51.374;6.594;2022-08-19T06:56:51;61.28;;;46.22;;
22470;SDS011;11402;51.374;6.594;2022-08-19T06:59:18;57.53;;;45.90;;
22470;SDS011;11402;51.374;6.594;2022-08-19T07:01:47;62.50;;;46.72;;
22470;SDS011;11402;51.374;6.594;2022-08-19T07:04:15;58.70;;;44.85;;
22470;SDS011;11402;51.374;6.594;2022-08-19T07:06:44;62.10;;;46.35;;
22470;SDS011;11402;51.374;6.594;2022-08-19T07:09:11;57.78;;;43.58;;
22470;SDS011;11402;51.374;6.594;2022-08-19T07:11:38;56.97;;;43.25;;
22470;SDS011;11402;51.374;6.594;2022-08-19T07:14:08;48.35;;;39.13;;
22470;SDS011;11402;51.374;6.594;2022-08-19T07:16:34;54.70;;;40.33;;
22470;SDS011;11402;51.374;6.594;2022-08-19T07:18:59;55.63;;;44.92;;
22470;SDS011;11402;51.374;6.594;2022-08-19T07:21:26;50.35;;;38.60;;
22470;SDS011;11402;51.374;6.594;2022-08-19T07:23:53;45.58;;;35.63;;
22470;SDS011;11402;51.374;6.594;2022-08-19T07:26:21;45.75;;;32.65;;
22470;SDS011;11402;51.374;6.594;2022-08-19T07:28:49;41.55;;;32.28;;
22470;SDS011;11402;51.374;6.594;2022-08-19T07:31:17;63.42;;;49.35;;
22470;SDS011;11402;51.374;6.594;2022-08-19T07:33:45;42.72;;;34.20;;
22470;SDS011;11402;51.374;6.594;2022-08-19T07:36:12;47.10;;;36.33;;
22470;SDS011;11402;51.374;6.594;2022-08-19T07:38:41;42.35;;;34.35;;
22470;SDS011;11402;51.374;6.594;2022-08-19T07:41:09;51.10;;;39.63;;
22470;SDS011;11402;51.374;6.594;2022-08-19T07:43:37;50.25;;;38.72;;
22470;SDS011;11402;51.374;6.594;2022-08-19T07:46:04;54.15;;;41.47;;
22470;SDS011;11402;51.374;6.594;2022-08-19T07:48:30;53.72;;;40.90;;
22470;SDS011;11402;51.374;6.594;2022-08-19T07:50:57;58.90;;;43.20;;
22470;SDS011;11402;51.374;6.594;2022-08-19T07:53:28;61.35;;;44.03;;
22470;SDS011;11402;51.374;6.594;2022-08-19T07:55:56;58.08;;;45.15;;
22470;SDS011;11402;51.374;6.594;2022-08-19T07:58:25;58.78;;;42.97;;
22470;SDS011;11402;51.374;6.594;2022-08-19T08:00:50;59.67;;;45.30;;
22470;SDS011;11402;51.374;6.594;2022-08-19T08:03:17;61.33;;;44.42;;
22470;SDS011;11402;51.374;6.594;2022-08-19T08:05:44;66.78;;;47.15;;
22470;SDS011;11402;51.374;6.594;2022-08-19T08:08:29;70.63;;;48.83;;
22470;SDS011;11402;51.374;6.594;2022-08-19T08:11:00;62.60;;;46.17;;
22470;SDS011;11402;51.374;6.594;2022-08-19T08:13:26;62.35;;;43.60;;
22470;SDS011;11402;51.374;6.594;2022-08-19T08:15:52;67.28;;;46.35;;
22470;SDS011;11402;51.374;6.594;2022-08-19T08:18:18;70.43;;;50.13;;
22470;SDS011;11402;51.374;6.594;2022-08-19T08:20:45;67.43;;;49.05;;
22470;SDS011;11402;51.374;6.594;2022-08-19T08:23:11;67.65;;;48.15;;
22470;SDS011;11402;51.374;6.594;2022-08-19T08:25:54;66.05;;;45.90;;
22470;SDS011;11402;51.374;6.594;2022-08-19T08:28:21;63.33;;;44.33;;
22470;SDS011;11402;51.374;6.594;2022-08-19T08:30:48;56.35;;;40.85;;
22470;SDS011;11402;51.374;6.594;2022-08-19T08:33:21;54.90;;;38.47;;
22470;SDS011;11402;51.374;6.594;2022-08-19T08:35:48;52.10;;;37.70;;
22470;SDS011;11402;51.374;6.594;2022-08-19T08:38:14;51.20;;;37.90;;
22470;SDS011;11402;51.374;6.594;2022-08-19T08:43:38;48.08;;;37.08;;
22470;SDS011;11402;51.374;6.594;2022-08-19T08:46:09;47.72;;;37.10;;
22470;SDS011;11402;51.374;6.594;2022-08-19T08:48:46;49.60;;;38.40;;
22470;SDS011;11402;51.374;6.594;2022-08-19T08:51:34;52.10;;;39.92;;
22470;SDS011;11402;51.374;6.594;2022-08-19T08:54:08;48.67;;;38.17;;
22470;SDS011;11402;51.374;6.594;2022-08-19T08:56:38;45.80;;;34.65;;
22470;SDS011;11402;51.374;6.594;2022-08-19T08:59:15;49.33;;;38.35;;
22470;SDS011;11402;51.374;6.594;2022-08-19T09:01:49;42.75;;;30.90;;
22470;SDS011;11402;51.374;6.594;2022-08-19T09:04:14;46.78;;;34.78;;
22470;SDS011;11402;51.374;6.594;2022-08-19T09:17:15;47.17;;;33.55;;
22470;SDS011;11402;51.374;6.594;2022-08-19T09:20:03;44.03;;;32.83;;
22470;SDS011;11402;51.374;6.594;2022-08-19T09:22:30;39.65;;;29.67;;
22470;SDS011;11402;51.374;6.594;2022-08-19T09:24:56;41.05;;;31.58;;
22470;SDS011;11402;51.374;6.594;2022-08-19T09:27:21;37.85;;;29.80;;
22470;SDS011;11402;51.374;6.594;2022-08-19T09:29:49;33.38;;;25.23;;
22470;SDS011;11402;51.374;6.594;2022-08-19T09:32:15;30.48;;;22.65;;
22470;SDS011;11402;51.374;6.594;2022-08-19T09:34:42;31.23;;;24.63;;
22470;SDS011;11402;51.374;6.594;2022-08-19T09:37:08;31.15;;;24.52;;
22470;SDS011;11402;51.374;6.594;2022-08-19T09:39:33;29.27;;;23.75;;
22470;SDS011;11402;51.374;6.594;2022-08-19T09:41:59;39.70;;;23.20;;
22470;SDS011;11402;51.374;6.594;2022-08-19T09:44:25;25.35;;;20.77;;
22470;SDS011;11402;51.374;6.594;2022-08-19T09:46:50;21.00;;;17.58;;
22470;SDS011;11402;51.374;6.594;2022-08-19T09:49:17;20.08;;;16.88;;
22470;SDS011;11402;51.374;6.594;2022-08-19T09:51:44;25.98;;;19.45;;
22470;SDS011;11402;51.374;6.594;2022-08-19T09:54:10;22.48;;;18.48;;
22470;SDS011;11402;51.374;6.594;2022-08-19T09:56:35;25.42;;;19.08;;
22470;SDS011;11402;51.374;6.594;2022-08-19T09:59:01;26.23;;;18.50;;
22470;SDS011;11402;51.374;6.594;2022-08-19T10:01:31;26.75;;;19.88;;
22470;SDS011;11402;51.374;6.594;2022-08-19T10:03:58;24.50;;;19.33;;
22470;SDS011;11402;51.374;6.594;2022-08-19T10:06:26;24.25;;;16.83;;
22470;SDS011;11402;51.374;6.594;2022-08-19T10:08:56;22.20;;;16.58;;
22470;SDS011;11402;51.374;6.594;2022-08-19T10:11:21;20.45;;;15.90;;
22470;SDS011;11402;51.374;6.594;2022-08-19T10:13:47;18.58;;;16.00;;
22470;SDS011;11402;51.374;6.594;2022-08-19T10:16:15;25.08;;;16.98;;
22470;SDS011;11402;51.374;6.594;2022-08-19T10:18:44;18.05;;;14.50;;
22470;SDS011;11402;51.374;6.594;2022-08-19T10:21:14;18.88;;;14.82;;
22470;SDS011;11402;51.374;6.594;2022-08-19T10:23:43;20.30;;;14.43;;
22470;SDS011;11402;51.374;6.594;2022-08-19T10:26:10;18.95;;;15.55;;
22470;SDS011;11402;51.374;6.594;2022-08-19T10:28:44;20.23;;;14.77;;
22470;SDS011;11402;51.374;6.594;2022-08-19T10:31:11;20.92;;;14.18;;
22470;SDS011;11402;51.374;6.594;2022-08-19T10:33:39;20.08;;;14.27;;
22470;SDS011;11402;51.374;6.594;2022-08-19T10:36:14;19.33;;;14.82;;
22470;SDS011;11402;51.374;6.594;2022-08-19T10:38:43;20.80;;;14.75;;
22470;SDS011;11402;51.374;6.594;2022-08-19T10:41:12;24.05;;;17.73;;
22470;SDS011;11402;51.374;6.594;2022-08-19T10:43:39;17.20;;;14.85;;
22470;SDS011;11402;51.374;6.594;2022-08-19T10:46:07;18.65;;;15.15;;
22470;SDS011;11402;51.374;6.594;2022-08-19T10:48:40;20.75;;;13.88;;
22470;SDS011;11402;51.374;6.594;2022-08-19T10:51:07;16.58;;;13.60;;
22470;SDS011;11402;51.374;6.594;2022-08-19T10:53:51;18.55;;;12.80;;
22470;SDS011;11402;51.374;6.594;2022-08-19T10:56:17;18.42;;;14.10;;
22470;SDS011;11402;51.374;6.594;2022-08-19T10:59:02;74.68;;;59.20;;
22470;SDS011;11402;51.374;6.594;2022-08-19T11:01:30;19.92;;;14.55;;
22470;SDS011;11402;51.374;6.594;2022-08-19T11:03:57;17.30;;;14.57;;
22470;SDS011;11402;51.374;6.594;2022-08-19T11:06:25;18.98;;;12.63;;
22470;SDS011;11402;51.374;6.594;2022-08-19T11:08:51;17.17;;;13.18;;
22470;SDS011;11402;51.374;6.594;2022-08-19T11:11:20;20.83;;;12.77;;
22470;SDS011;11402;51.374;6.594;2022-08-19T11:13:47;15.65;;;12.20;;
22470;SDS011;11402;51.374;6.594;2022-08-19T11:16:22;12.52;;;10.75;;
22470;SDS011;11402;51.374;6.594;2022-08-19T11:18:51;14.45;;;11.05;;
22470;SDS011;11402;51.374;6.594;2022-08-19T11:21:20;13.07;;;11.32;;
22470;SDS011;11402;51.374;6.594;2022-08-19T11:23:49;13.07;;;11.20;;
22470;SDS011;11402;51.374;6.594;2022-08-19T11:26:17;18.02;;;10.98;;
22470;SDS011;11402;51.374;6.594;2022-08-19T11:28:44;14.57;;;12.68;;
22470;SDS011;11402;51.374;6.594;2022-08-19T11:31:11;14.32;;;11.77;;
22470;SDS011;11402;51.374;6.594;2022-08-19T11:33:40;14.48;;;12.10;;
22470;SDS011;11402;51.374;6.594;2022-08-19T11:36:06;15.32;;;11.43;;
22470;SDS011;11402;51.374;6.594;2022-08-19T11:38:32;15.48;;;11.90;;
22470;SDS011;11402;51.374;6.594;2022-08-19T11:41:01;12.63;;;10.98;;
22470;SDS011;11402;51.374;6.594;2022-08-19T11:43:29;18.05;;;10.55;;
22470;SDS011;11402;51.374;6.594;2022-08-19T11:45:56;13.25;;;10.40;;
22470;SDS011;11402;51.374;6.594;2022-08-19T11:48:22;14.13;;;9.57;;
22470;SDS011;11402;51.374;6.594;2022-08-19T11:50:49;10.43;;;7.35;;
22470;SDS011;11402;51.374;6.594;2022-08-19T11:53:16;9.45;;;7.53;;
22470;SDS011;11402;51.374;6.594;2022-08-19T11:55:44;8.43;;;6.03;;
22470;SDS011;11402;51.374;6.594;2022-08-19T11:58:11;11.52;;;7.05;;
22470;SDS011;11402;51.374;6.594;2022-08-19T12:00:39;13.60;;;8.27;;
22470;SDS011;11402;51.374;6.594;2022-08-19T12:03:05;15.15;;;8.55;;
22470;SDS011;11402;51.374;6.594;2022-08-19T12:05:31;8.00;;;7.13;;
22470;SDS011;11402;51.374;6.594;2022-08-19T12:07:57;9.30;;;6.85;;
22470;SDS011;11402;51.374;6.594;2022-08-19T12:10:23;10.48;;;7.68;;
22470;SDS011;11402;51.374;6.594;2022-08-19T12:12:49;9.93;;;7.10;;
22470;SDS011;11402;51.374;6.594;2022-08-19T12:15:15;8.73;;;6.13;;
22470;SDS011;11402;51.374;6.594;2022-08-19T12:17:41;8.13;;;5.97;;
22470;SDS011;11402;51.374;6.594;2022-08-19T12:20:08;11.05;;;7.07;;
22470;SDS011;11402;51.374;6.594;2022-08-19T12:22:35;9.82;;;6.80;;
22470;SDS011;11402;51.374;6.594;2022-08-19T12:25:03;10.50;;;6.25;;
22470;SDS011;11402;51.374;6.594;2022-08-19T12:27:29;9.77;;;6.55;;
22470;SDS011;11402;51.374;6.594;2022-08-19T12:29:55;8.27;;;5.82;;
22470;SDS011;11402;51.374;6.594;2022-08-19T12:32:20;7.90;;;5.97;;
22470;SDS011;11402;51.374;6.594;2022-08-19T12:34:46;7.70;;;5.68;;
22470;SDS011;11402;51.374;6.594;2022-08-19T12:37:12;9.82;;;5.20;;
22470;SDS011;11402;51.374;6.594;2022-08-19T12:39:39;11.43;;;6.00;;
22470;SDS011;11402;51.374;6.594;2022-08-19T12:42:07;10.02;;;5.47;;
22470;SDS011;11402;51.374;6.594;2022-08-19T12:44:33;9.48;;;6.72;;
22470;SDS011;11402;51.374;6.594;2022-08-19T12:47:00;9.13;;;5.40;;
22470;SDS011;11402;51.374;6.594;2022-08-19T12:49:28;10.50;;;6.13;;
22470;SDS011;11402;51.374;6.594;2022-08-19T12:51:54;8.70;;;5.80;;
22470;SDS011;11402;51.374;6.594;2022-08-19T12:54:19;7.47;;;5.70;;
22470;SDS011;11402;51.374;6.594;2022-08-19T12:56:45;10.02;;;5.90;;
22470;SDS011;11402;51.374;6.594;2022-08-19T12:59:10;10.88;;;5.80;;
22470;SDS011;11402;51.374;6.594;2022-08-19T13:01:36;11.38;;;6.03;;
22470;SDS011;11402;51.374;6.594;2022-08-19T13:04:06;10.38;;;5.70;;
22470;SDS011;11402;51.374;6.594;2022-08-19T13:06:31;8.70;;;5.90;;
22470;SDS011;11402;51.374;6.594;2022-08-19T13:08:57;8.35;;;5.78;;
22470;SDS011;11402;51.374;6.594;2022-08-19T13:11:22;10.40;;;5.93;;
22470;SDS011;11402;51.374;6.594;2022-08-19T13:13:49;8.73;;;5.40;;
22470;SDS011;11402;51.374;6.594;2022-08-19T13:16:16;7.93;;;5.25;;
22470;SDS011;11402;51.374;6.594;2022-08-19T13:18:45;9.68;;;5.82;;
22470;SDS011;11402;51.374;6.594;2022-08-19T13:21:12;9.73;;;5.40;;
22470;SDS011;11402;51.374;6.594;2022-08-19T13:23:39;10.77;;;5.60;;
22470;SDS011;11402;51.374;6.594;2022-08-19T13:26:06;6.47;;;4.68;;
22470;SDS011;11402;51.374;6.594;2022-08-19T13:28:33;8.38;;;5.72;;
22470;SDS011;11402;51.374;6.594;2022-08-19T13:31:19;9.18;;;5.70;;
22470;SDS011;11402;51.374;6.594;2022-08-19T13:34:06;8.77;;;5.72;;
22470;SDS011;11402;51.374;6.594;2022-08-19T13:36:32;9.60;;;5.60;;
22470;SDS011;11402;51.374;6.594;2022-08-19T13:38:59;9.68;;;5.63;;
22470;SDS011;11402;51.374;6.594;2022-08-19T13:41:25;9.38;;;6.00;;
22470;SDS011;11402;51.374;6.594;2022-08-19T13:43:51;9.45;;;5.70;;
22470;SDS011;11402;51.374;6.594;2022-08-19T13:46:17;8.57;;;5.38;;
22470;SDS011;11402;51.374;6.594;2022-08-19T13:48:44;8.90;;;4.90;;
22470;SDS011;11402;51.374;6.594;2022-08-19T13:51:11;10.07;;;5.55;;
22470;SDS011;11402;51.374;6.594;2022-08-19T13:53:37;7.10;;;5.38;;
22470;SDS011;11402;51.374;6.594;2022-08-19T13:56:07;8.45;;;6.80;;
22470;SDS011;11402;51.374;6.594;2022-08-19T13:58:35;11.52;;;6.70;;
22470;SDS011;11402;51.374;6.594;2022-08-19T14:01:01;10.82;;;6.38;;
22470;SDS011;11402;51.374;6.594;2022-08-19T14:03:27;12.90;;;5.88;;
22470;SDS011;11402;51.374;6.594;2022-08-19T14:05:53;11.27;;;5.72;;
22470;SDS011;11402;51.374;6.594;2022-08-19T14:08:19;12.55;;;5.28;;
22470;SDS011;11402;51.374;6.594;2022-08-19T14:10:45;11.20;;;5.15;;
22470;SDS011;11402;51.374;6.594;2022-08-19T14:13:13;9.93;;;5.00;;
22470;SDS011;11402;51.374;6.594;2022-08-19T14:15:41;11.25;;;4.70;;
22470;SDS011;11402;51.374;6.594;2022-08-19T14:18:06;8.95;;;4.53;;
22470;SDS011;11402;51.374;6.594;2022-08-19T14:20:35;9.18;;;5.28;;
22470;SDS011;11402;51.374;6.594;2022-08-19T14:23:01;6.00;;;4.63;;
22470;SDS011;11402;51.374;6.594;2022-08-19T14:25:30;7.20;;;4.50;;
22470;SDS011;11402;51.374;6.594;2022-08-19T14:27:56;6.85;;;3.70;;
22470;SDS011;11402;51.374;6.594;2022-08-19T14:30:24;6.43;;;4.13;;
22470;SDS011;11402;51.374;6.594;2022-08-19T14:32:52;8.15;;;3.80;;
22470;SDS011;11402;51.374;6.594;2022-08-19T14:35:19;11.10;;;3.92;;
22470;SDS011;11402;51.374;6.594;2022-08-19T14:37:47;9.18;;;3.78;;
22470;SDS011;11402;51.374;6.594;2022-08-19T14:40:15;9.25;;;4.57;;
22470;SDS011;11402;51.374;6.594;2022-08-19T14:42:42;6.60;;;4.75;;
22470;SDS011;11402;51.374;6.594;2022-08-19T14:45:09;8.55;;;4.60;;
22470;SDS011;11402;51.374;6.594;2022-08-19T14:47:35;6.95;;;4.30;;
22470;SDS011;11402;51.374;6.594;2022-08-19T14:50:01;8.98;;;4.28;;